sensor_id;sensor_type;location;lat;lon;timestamp;P1;durP1;ratioP1;P2;durP2;ratioP2
3379;SDS011;1703;51.964;7.642;2024-03-08T00:00:14;19.53;;;12.67;;
3379;SDS011;1703;51.964;7.642;2024-03-08T00:02:45;21.17;;;16.23;;
3379;SDS011;1703;51.964;7.642;2024-03-08T00:05:12;24.00;;;16.13;;
3379;SDS011;1703;51.964;7.642;2024-03-08T00:07:40;20.83;;;14.57;;
3379;SDS011;1703;51.964;7.642;2024-03-08T00:10:09;21.43;;;14.23;;
3379;SDS011;1703;51.964;7.642;2024-03-08T00:12:37;25.83;;;15.17;;
3379;SDS011;1703;51.964;7.642;2024-03-08T00:15:04;24.20;;;14.83;;
3379;SDS011;1703;51.964;7.642;2024-03-08T00:17:32;24.03;;;15.67;;
3379;SDS011;1703;51.964;7.642;2024-03-08T00:20:00;26.10;;;14.50;;
3379;SDS011;1703;51.964;7.642;2024-03-08T00:22:28;23.93;;;14.37;;
3379;SDS011;1703;51.964;7.642;2024-03-08T00:24:56;26.73;;;16.10;;
3379;SDS011;1703;51.964;7.642;2024-03-08T00:27:22;24.47;;;14.97;;
3379;SDS011;1703;51.964;7.642;2024-03-08T00:29:49;23.17;;;16.10;;
3379;SDS011;1703;51.964;7.642;2024-03-08T00:32:16;20.77;;;13.40;;
3379;SDS011;1703;51.964;7.642;2024-03-08T00:34:43;23.33;;;15.47;;
3379;SDS011;1703;51.964;7.642;2024-03-08T00:37:11;29.93;;;16.43;;
3379;SDS011;1703;51.964;7.642;2024-03-08T00:39:38;24.67;;;15.80;;
3379;SDS011;1703;51.964;7.642;2024-03-08T00:42:05;19.07;;;12.80;;
3379;SDS011;1703;51.964;7.642;2024-03-08T00:44:31;21.27;;;15.10;;
3379;SDS011;1703;51.964;7.642;2024-03-08T00:46:58;25.90;;;17.63;;
3379;SDS011;1703;51.964;7.642;2024-03-08T00:49:25;24.57;;;15.77;;
3379;SDS011;1703;51.964;7.642;2024-03-08T00:51:52;28.20;;;16.50;;
3379;SDS011;1703;51.964;7.642;2024-03-08T00:54:20;21.73;;;15.37;;
3379;SDS011;1703;51.964;7.642;2024-03-08T00:56:47;35.83;;;16.63;;
3379;SDS011;1703;51.964;7.642;2024-03-08T00:59:14;22.30;;;16.33;;
3379;SDS011;1703;51.964;7.642;2024-03-08T01:01:41;19.80;;;14.90;;
3379;SDS011;1703;51.964;7.642;2024-03-08T01:07:56;27.00;;;18.10;;
3379;SDS011;1703;51.964;7.642;2024-03-08T01:10:25;24.60;;;16.13;;
3379;SDS011;1703;51.964;7.642;2024-03-08T01:12:52;23.40;;;15.80;;
3379;SDS011;1703;51.964;7.642;2024-03-08T01:15:19;25.60;;;17.13;;
3379;SDS011;1703;51.964;7.642;2024-03-08T01:17:46;28.40;;;16.47;;
3379;SDS011;1703;51.964;7.642;2024-03-08T01:20:13;28.00;;;17.53;;
3379;SDS011;1703;51.964;7.642;2024-03-08T01:22:40;24.93;;;15.83;;
3379;SDS011;1703;51.964;7.642;2024-03-08T01:25:07;26.17;;;16.07;;
3379;SDS011;1703;51.964;7.642;2024-03-08T01:27:36;30.53;;;15.53;;
3379;SDS011;1703;51.964;7.642;2024-03-08T01:30:03;22.00;;;14.43;;
3379;SDS011;1703;51.964;7.642;2024-03-08T01:32:30;26.50;;;15.90;;
3379;SDS011;1703;51.964;7.642;2024-03-08T01:34:57;29.73;;;18.40;;
3379;SDS011;1703;51.964;7.642;2024-03-08T01:37:24;26.30;;;16.27;;
3379;SDS011;1703;51.964;7.642;2024-03-08T01:39:51;22.10;;;15.30;;
3379;SDS011;1703;51.964;7.642;2024-03-08T01:42:18;23.37;;;14.70;;
3379;SDS011;1703;51.964;7.642;2024-03-08T01:44:46;22.83;;;16.23;;
3379;SDS011;1703;51.964;7.642;2024-03-08T01:47:13;32.80;;;17.93;;
3379;SDS011;1703;51.964;7.642;2024-03-08T01:49:40;31.17;;;19.10;;
3379;SDS011;1703;51.964;7.642;2024-03-08T01:52:07;28.50;;;16.60;;
3379;SDS011;1703;51.964;7.642;2024-03-08T01:54:34;25.03;;;16.20;;
3379;SDS011;1703;51.964;7.642;2024-03-08T01:57:01;24.53;;;15.37;;
3379;SDS011;1703;51.964;7.642;2024-03-08T01:59:28;24.53;;;16.33;;
3379;SDS011;1703;51.964;7.642;2024-03-08T02:01:57;26.20;;;16.23;;
3379;SDS011;1703;51.964;7.642;2024-03-08T02:04:28;28.40;;;17.77;;
3379;SDS011;1703;51.964;7.642;2024-03-08T02:06:56;33.83;;;16.97;;
3379;SDS011;1703;51.964;7.642;2024-03-08T02:09:23;21.57;;;15.77;;
3379;SDS011;1703;51.964;7.642;2024-03-08T02:11:50;24.07;;;16.27;;
3379;SDS011;1703;51.964;7.642;2024-03-08T02:14:19;26.17;;;17.97;;
3379;SDS011;1703;51.964;7.642;2024-03-08T02:16:46;34.67;;;18.20;;
3379;SDS011;1703;51.964;7.642;2024-03-08T02:19:14;25.97;;;17.03;;
3379;SDS011;1703;51.964;7.642;2024-03-08T02:21:42;30.00;;;17.03;;
3379;SDS011;1703;51.964;7.642;2024-03-08T02:24:12;22.30;;;16.83;;
3379;SDS011;1703;51.964;7.642;2024-03-08T02:26:39;21.70;;;16.37;;
3379;SDS011;1703;51.964;7.642;2024-03-08T02:29:07;22.27;;;16.00;;
3379;SDS011;1703;51.964;7.642;2024-03-08T02:31:35;31.57;;;18.37;;
3379;SDS011;1703;51.964;7.642;2024-03-08T02:34:01;28.50;;;18.80;;
3379;SDS011;1703;51.964;7.642;2024-03-08T02:36:30;26.60;;;16.30;;
3379;SDS011;1703;51.964;7.642;2024-03-08T02:39:01;27.40;;;18.43;;
3379;SDS011;1703;51.964;7.642;2024-03-08T02:41:28;30.33;;;17.97;;
3379;SDS011;1703;51.964;7.642;2024-03-08T02:43:54;26.67;;;16.73;;
3379;SDS011;1703;51.964;7.642;2024-03-08T02:46:21;29.77;;;16.90;;
3379;SDS011;1703;51.964;7.642;2024-03-08T02:48:48;25.77;;;18.17;;
3379;SDS011;1703;51.964;7.642;2024-03-08T02:51:16;27.27;;;16.73;;
3379;SDS011;1703;51.964;7.642;2024-03-08T02:53:42;26.43;;;17.70;;
3379;SDS011;1703;51.964;7.642;2024-03-08T02:56:11;30.23;;;18.30;;
3379;SDS011;1703;51.964;7.642;2024-03-08T02:58:41;29.17;;;18.57;;
3379;SDS011;1703;51.964;7.642;2024-03-08T03:01:13;27.60;;;17.10;;
3379;SDS011;1703;51.964;7.642;2024-03-08T03:03:40;28.80;;;19.03;;
3379;SDS011;1703;51.964;7.642;2024-03-08T03:06:07;28.43;;;18.83;;
3379;SDS011;1703;51.964;7.642;2024-03-08T03:08:34;30.70;;;17.37;;
3379;SDS011;1703;51.964;7.642;2024-03-08T03:11:00;28.80;;;18.60;;
3379;SDS011;1703;51.964;7.642;2024-03-08T03:13:29;28.80;;;18.10;;
3379;SDS011;1703;51.964;7.642;2024-03-08T03:15:55;40.03;;;20.40;;
3379;SDS011;1703;51.964;7.642;2024-03-08T03:18:23;26.33;;;19.53;;
3379;SDS011;1703;51.964;7.642;2024-03-08T03:20:51;24.13;;;17.00;;
3379;SDS011;1703;51.964;7.642;2024-03-08T03:23:18;26.73;;;16.70;;
3379;SDS011;1703;51.964;7.642;2024-03-08T03:25:45;30.13;;;17.20;;
3379;SDS011;1703;51.964;7.642;2024-03-08T03:28:12;32.03;;;18.20;;
3379;SDS011;1703;51.964;7.642;2024-03-08T03:30:44;31.63;;;19.57;;
3379;SDS011;1703;51.964;7.642;2024-03-08T03:33:11;29.97;;;18.33;;
3379;SDS011;1703;51.964;7.642;2024-03-08T03:35:40;27.57;;;18.50;;
3379;SDS011;1703;51.964;7.642;2024-03-08T03:38:08;33.43;;;17.67;;
3379;SDS011;1703;51.964;7.642;2024-03-08T03:40:35;32.37;;;18.37;;
3379;SDS011;1703;51.964;7.642;2024-03-08T03:43:02;27.50;;;18.20;;
3379;SDS011;1703;51.964;7.642;2024-03-08T03:45:29;34.40;;;18.73;;
3379;SDS011;1703;51.964;7.642;2024-03-08T03:48:01;28.77;;;17.63;;
3379;SDS011;1703;51.964;7.642;2024-03-08T03:50:28;36.33;;;19.20;;
3379;SDS011;1703;51.964;7.642;2024-03-08T03:52:55;34.03;;;19.37;;
3379;SDS011;1703;51.964;7.642;2024-03-08T03:55:22;24.90;;;17.27;;
3379;SDS011;1703;51.964;7.642;2024-03-08T03:57:49;33.00;;;18.40;;
3379;SDS011;1703;51.964;7.642;2024-03-08T04:00:16;31.57;;;19.00;;
3379;SDS011;1703;51.964;7.642;2024-03-08T04:02:43;31.63;;;19.60;;
3379;SDS011;1703;51.964;7.642;2024-03-08T04:05:13;28.43;;;19.93;;
3379;SDS011;1703;51.964;7.642;2024-03-08T04:07:40;34.47;;;20.23;;
3379;SDS011;1703;51.964;7.642;2024-03-08T04:10:07;34.07;;;19.37;;
3379;SDS011;1703;51.964;7.642;2024-03-08T04:12:36;25.97;;;18.50;;
3379;SDS011;1703;51.964;7.642;2024-03-08T04:15:04;25.00;;;17.67;;
3379;SDS011;1703;51.964;7.642;2024-03-08T04:17:32;30.50;;;21.17;;
3379;SDS011;1703;51.964;7.642;2024-03-08T04:20:01;26.20;;;18.10;;
3379;SDS011;1703;51.964;7.642;2024-03-08T04:22:34;29.27;;;19.67;;
3379;SDS011;1703;51.964;7.642;2024-03-08T04:25:01;25.73;;;19.33;;
3379;SDS011;1703;51.964;7.642;2024-03-08T04:27:28;31.07;;;20.60;;
3379;SDS011;1703;51.964;7.642;2024-03-08T04:29:55;39.60;;;21.00;;
3379;SDS011;1703;51.964;7.642;2024-03-08T04:32:22;26.90;;;20.50;;
3379;SDS011;1703;51.964;7.642;2024-03-08T04:34:49;34.40;;;20.47;;
3379;SDS011;1703;51.964;7.642;2024-03-08T04:37:15;28.47;;;19.13;;
3379;SDS011;1703;51.964;7.642;2024-03-08T04:39:47;35.33;;;21.17;;
3379;SDS011;1703;51.964;7.642;2024-03-08T04:42:14;36.33;;;22.37;;
3379;SDS011;1703;51.964;7.642;2024-03-08T04:44:43;29.07;;;19.87;;
3379;SDS011;1703;51.964;7.642;2024-03-08T04:47:10;34.13;;;18.43;;
3379;SDS011;1703;51.964;7.642;2024-03-08T04:49:36;29.00;;;18.97;;
3379;SDS011;1703;51.964;7.642;2024-03-08T04:52:03;33.83;;;20.77;;
3379;SDS011;1703;51.964;7.642;2024-03-08T04:54:32;28.53;;;18.93;;
3379;SDS011;1703;51.964;7.642;2024-03-08T04:57:00;34.37;;;19.87;;
3379;SDS011;1703;51.964;7.642;2024-03-08T04:59:27;31.57;;;19.70;;
3379;SDS011;1703;51.964;7.642;2024-03-08T05:01:54;29.70;;;20.47;;
3379;SDS011;1703;51.964;7.642;2024-03-08T05:04:21;34.23;;;21.70;;
3379;SDS011;1703;51.964;7.642;2024-03-08T05:06:48;33.10;;;20.90;;
3379;SDS011;1703;51.964;7.642;2024-03-08T05:09:15;32.63;;;20.07;;
3379;SDS011;1703;51.964;7.642;2024-03-08T05:11:43;30.37;;;19.93;;
3379;SDS011;1703;51.964;7.642;2024-03-08T05:14:11;35.17;;;18.33;;
3379;SDS011;1703;51.964;7.642;2024-03-08T05:16:41;34.33;;;19.50;;
3379;SDS011;1703;51.964;7.642;2024-03-08T05:19:08;30.87;;;20.10;;
3379;SDS011;1703;51.964;7.642;2024-03-08T05:21:35;29.07;;;18.77;;
3379;SDS011;1703;51.964;7.642;2024-03-08T05:24:02;31.77;;;19.30;;
3379;SDS011;1703;51.964;7.642;2024-03-08T05:26:30;33.87;;;20.10;;
3379;SDS011;1703;51.964;7.642;2024-03-08T05:28:58;32.40;;;21.20;;
3379;SDS011;1703;51.964;7.642;2024-03-08T05:31:26;27.53;;;17.53;;
3379;SDS011;1703;51.964;7.642;2024-03-08T05:33:53;26.67;;;17.20;;
3379;SDS011;1703;51.964;7.642;2024-03-08T05:36:20;41.43;;;20.57;;
3379;SDS011;1703;51.964;7.642;2024-03-08T05:38:47;25.13;;;16.97;;
3379;SDS011;1703;51.964;7.642;2024-03-08T05:41:15;30.40;;;17.83;;
3379;SDS011;1703;51.964;7.642;2024-03-08T05:43:42;31.13;;;18.77;;
3379;SDS011;1703;51.964;7.642;2024-03-08T05:46:09;31.10;;;18.80;;
3379;SDS011;1703;51.964;7.642;2024-03-08T05:48:38;32.53;;;20.37;;
3379;SDS011;1703;51.964;7.642;2024-03-08T05:51:04;31.53;;;21.27;;
3379;SDS011;1703;51.964;7.642;2024-03-08T05:53:31;30.13;;;19.10;;
3379;SDS011;1703;51.964;7.642;2024-03-08T05:55:58;37.73;;;18.60;;
3379;SDS011;1703;51.964;7.642;2024-03-08T05:58:27;34.93;;;18.93;;
3379;SDS011;1703;51.964;7.642;2024-03-08T06:00:55;30.10;;;19.10;;
3379;SDS011;1703;51.964;7.642;2024-03-08T06:03:22;40.20;;;22.17;;
3379;SDS011;1703;51.964;7.642;2024-03-08T06:05:50;36.80;;;19.37;;
3379;SDS011;1703;51.964;7.642;2024-03-08T06:08:17;33.37;;;20.40;;
3379;SDS011;1703;51.964;7.642;2024-03-08T06:10:44;34.90;;;19.57;;
3379;SDS011;1703;51.964;7.642;2024-03-08T06:13:11;34.87;;;20.80;;
3379;SDS011;1703;51.964;7.642;2024-03-08T06:15:38;31.30;;;19.40;;
3379;SDS011;1703;51.964;7.642;2024-03-08T06:18:04;35.13;;;21.37;;
3379;SDS011;1703;51.964;7.642;2024-03-08T06:20:33;29.53;;;19.67;;
3379;SDS011;1703;51.964;7.642;2024-03-08T06:23:01;28.97;;;19.07;;
3379;SDS011;1703;51.964;7.642;2024-03-08T06:25:27;29.13;;;19.93;;
3379;SDS011;1703;51.964;7.642;2024-03-08T06:27:54;32.53;;;20.70;;
3379;SDS011;1703;51.964;7.642;2024-03-08T06:30:21;36.00;;;19.50;;
3379;SDS011;1703;51.964;7.642;2024-03-08T06:32:48;39.47;;;22.70;;
3379;SDS011;1703;51.964;7.642;2024-03-08T06:35:15;30.37;;;18.37;;
3379;SDS011;1703;51.964;7.642;2024-03-08T06:37:41;36.03;;;19.60;;
3379;SDS011;1703;51.964;7.642;2024-03-08T06:40:11;35.87;;;22.07;;
3379;SDS011;1703;51.964;7.642;2024-03-08T06:42:39;28.97;;;19.03;;
3379;SDS011;1703;51.964;7.642;2024-03-08T06:45:06;32.03;;;19.23;;
3379;SDS011;1703;51.964;7.642;2024-03-08T06:47:35;35.00;;;20.43;;
3379;SDS011;1703;51.964;7.642;2024-03-08T06:50:02;32.03;;;19.90;;
3379;SDS011;1703;51.964;7.642;2024-03-08T06:52:30;33.53;;;20.57;;
3379;SDS011;1703;51.964;7.642;2024-03-08T06:54:58;38.40;;;19.90;;
3379;SDS011;1703;51.964;7.642;2024-03-08T06:57:28;33.00;;;20.27;;
3379;SDS011;1703;51.964;7.642;2024-03-08T06:59:54;40.57;;;21.80;;
3379;SDS011;1703;51.964;7.642;2024-03-08T07:02:22;30.40;;;18.80;;
3379;SDS011;1703;51.964;7.642;2024-03-08T07:04:50;28.07;;;19.77;;
3379;SDS011;1703;51.964;7.642;2024-03-08T07:07:18;38.60;;;21.07;;
3379;SDS011;1703;51.964;7.642;2024-03-08T07:09:45;34.53;;;20.07;;
3379;SDS011;1703;51.964;7.642;2024-03-08T07:12:14;34.63;;;18.30;;
3379;SDS011;1703;51.964;7.642;2024-03-08T07:14:43;29.93;;;18.60;;
3379;SDS011;1703;51.964;7.642;2024-03-08T07:17:10;31.13;;;17.83;;
3379;SDS011;1703;51.964;7.642;2024-03-08T07:19:38;25.90;;;18.33;;
3379;SDS011;1703;51.964;7.642;2024-03-08T07:22:05;34.40;;;18.23;;
3379;SDS011;1703;51.964;7.642;2024-03-08T07:24:34;50.70;;;19.97;;
3379;SDS011;1703;51.964;7.642;2024-03-08T07:27:05;31.97;;;19.10;;
3379;SDS011;1703;51.964;7.642;2024-03-08T07:29:32;26.67;;;18.07;;
3379;SDS011;1703;51.964;7.642;2024-03-08T07:32:00;38.90;;;19.90;;
3379;SDS011;1703;51.964;7.642;2024-03-08T07:34:37;38.77;;;20.57;;
3379;SDS011;1703;51.964;7.642;2024-03-08T07:37:05;36.47;;;21.13;;
3379;SDS011;1703;51.964;7.642;2024-03-08T07:39:36;36.93;;;19.47;;
3379;SDS011;1703;51.964;7.642;2024-03-08T07:42:04;37.83;;;20.63;;
3379;SDS011;1703;51.964;7.642;2024-03-08T07:44:33;37.40;;;20.67;;
3379;SDS011;1703;51.964;7.642;2024-03-08T07:47:01;39.50;;;18.00;;
3379;SDS011;1703;51.964;7.642;2024-03-08T07:49:28;43.50;;;18.47;;
3379;SDS011;1703;51.964;7.642;2024-03-08T07:51:55;39.97;;;20.00;;
3379;SDS011;1703;51.964;7.642;2024-03-08T07:54:22;39.03;;;21.97;;
3379;SDS011;1703;51.964;7.642;2024-03-08T07:56:50;35.07;;;18.47;;
3379;SDS011;1703;51.964;7.642;2024-03-08T07:59:17;32.13;;;20.20;;
3379;SDS011;1703;51.964;7.642;2024-03-08T08:01:46;30.63;;;20.97;;
3379;SDS011;1703;51.964;7.642;2024-03-08T08:04:14;33.60;;;18.90;;
3379;SDS011;1703;51.964;7.642;2024-03-08T08:06:43;29.30;;;19.93;;
3379;SDS011;1703;51.964;7.642;2024-03-08T08:09:09;38.57;;;20.80;;
3379;SDS011;1703;51.964;7.642;2024-03-08T08:11:39;37.40;;;20.47;;
3379;SDS011;1703;51.964;7.642;2024-03-08T08:14:08;34.73;;;20.13;;
3379;SDS011;1703;51.964;7.642;2024-03-08T08:16:35;35.93;;;19.50;;
3379;SDS011;1703;51.964;7.642;2024-03-08T08:19:02;33.47;;;20.73;;
3379;SDS011;1703;51.964;7.642;2024-03-08T08:21:33;43.77;;;20.40;;
3379;SDS011;1703;51.964;7.642;2024-03-08T08:24:02;37.27;;;20.30;;
3379;SDS011;1703;51.964;7.642;2024-03-08T08:26:28;32.43;;;18.57;;
3379;SDS011;1703;51.964;7.642;2024-03-08T08:28:55;32.83;;;20.23;;
3379;SDS011;1703;51.964;7.642;2024-03-08T08:31:22;30.93;;;18.53;;
3379;SDS011;1703;51.964;7.642;2024-03-08T08:33:49;31.70;;;18.37;;
3379;SDS011;1703;51.964;7.642;2024-03-08T08:36:18;32.27;;;17.87;;
3379;SDS011;1703;51.964;7.642;2024-03-08T08:38:47;32.37;;;18.63;;
3379;SDS011;1703;51.964;7.642;2024-03-08T08:41:13;30.60;;;19.67;;
3379;SDS011;1703;51.964;7.642;2024-03-08T08:43:42;31.47;;;18.70;;
3379;SDS011;1703;51.964;7.642;2024-03-08T08:46:09;30.63;;;18.60;;
3379;SDS011;1703;51.964;7.642;2024-03-08T08:48:38;31.73;;;19.57;;
3379;SDS011;1703;51.964;7.642;2024-03-08T08:51:06;29.67;;;19.30;;
3379;SDS011;1703;51.964;7.642;2024-03-08T08:53:37;34.80;;;22.13;;
3379;SDS011;1703;51.964;7.642;2024-03-08T08:56:07;37.73;;;21.03;;
3379;SDS011;1703;51.964;7.642;2024-03-08T08:58:34;31.70;;;20.13;;
3379;SDS011;1703;51.964;7.642;2024-03-08T09:01:01;33.77;;;20.00;;
3379;SDS011;1703;51.964;7.642;2024-03-08T09:03:27;37.43;;;21.47;;
3379;SDS011;1703;51.964;7.642;2024-03-08T09:05:55;33.73;;;18.87;;
3379;SDS011;1703;51.964;7.642;2024-03-08T09:08:22;34.20;;;19.63;;
3379;SDS011;1703;51.964;7.642;2024-03-08T09:10:50;41.23;;;21.40;;
3379;SDS011;1703;51.964;7.642;2024-03-08T09:13:18;43.67;;;19.37;;
3379;SDS011;1703;51.964;7.642;2024-03-08T09:15:44;32.03;;;19.17;;
3379;SDS011;1703;51.964;7.642;2024-03-08T09:18:11;31.17;;;20.90;;
3379;SDS011;1703;51.964;7.642;2024-03-08T09:20:38;30.70;;;19.33;;
3379;SDS011;1703;51.964;7.642;2024-03-08T09:23:06;38.63;;;21.13;;
3379;SDS011;1703;51.964;7.642;2024-03-08T09:25:33;35.30;;;19.17;;
3379;SDS011;1703;51.964;7.642;2024-03-08T09:28:00;33.97;;;22.37;;
3379;SDS011;1703;51.964;7.642;2024-03-08T09:30:28;33.47;;;20.47;;
3379;SDS011;1703;51.964;7.642;2024-03-08T09:32:55;34.30;;;22.07;;
3379;SDS011;1703;51.964;7.642;2024-03-08T09:35:22;33.87;;;17.20;;
3379;SDS011;1703;51.964;7.642;2024-03-08T09:37:48;23.27;;;17.23;;
3379;SDS011;1703;51.964;7.642;2024-03-08T09:40:16;33.05;;;23.20;;
3379;SDS011;1703;51.964;7.642;2024-03-08T09:42:44;34.63;;;21.43;;
3379;SDS011;1703;51.964;7.642;2024-03-08T09:45:12;31.83;;;18.50;;
3379;SDS011;1703;51.964;7.642;2024-03-08T09:47:42;30.50;;;18.57;;
3379;SDS011;1703;51.964;7.642;2024-03-08T09:50:10;30.77;;;19.20;;
3379;SDS011;1703;51.964;7.642;2024-03-08T09:52:38;35.77;;;19.60;;
3379;SDS011;1703;51.964;7.642;2024-03-08T09:55:06;35.00;;;19.73;;
3379;SDS011;1703;51.964;7.642;2024-03-08T09:57:35;37.47;;;20.53;;
3379;SDS011;1703;51.964;7.642;2024-03-08T10:00:03;30.60;;;19.67;;
3379;SDS011;1703;51.964;7.642;2024-03-08T10:02:46;26.93;;;18.60;;
3379;SDS011;1703;51.964;7.642;2024-03-08T10:05:13;30.00;;;20.20;;
3379;SDS011;1703;51.964;7.642;2024-03-08T10:07:40;40.57;;;19.93;;
3379;SDS011;1703;51.964;7.642;2024-03-08T10:10:07;32.87;;;20.03;;
3379;SDS011;1703;51.964;7.642;2024-03-08T10:12:37;32.83;;;19.50;;
3379;SDS011;1703;51.964;7.642;2024-03-08T10:15:05;32.33;;;18.40;;
3379;SDS011;1703;51.964;7.642;2024-03-08T10:17:34;26.27;;;17.10;;
3379;SDS011;1703;51.964;7.642;2024-03-08T10:20:02;40.00;;;18.60;;
3379;SDS011;1703;51.964;7.642;2024-03-08T10:22:39;23.97;;;16.17;;
3379;SDS011;1703;51.964;7.642;2024-03-08T10:25:07;26.57;;;16.77;;
3379;SDS011;1703;51.964;7.642;2024-03-08T10:27:36;26.80;;;15.73;;
3379;SDS011;1703;51.964;7.642;2024-03-08T10:30:04;28.40;;;17.20;;
3379;SDS011;1703;51.964;7.642;2024-03-08T10:32:37;28.33;;;16.07;;
3379;SDS011;1703;51.964;7.642;2024-03-08T10:35:07;30.87;;;19.50;;
3379;SDS011;1703;51.964;7.642;2024-03-08T10:37:35;31.20;;;17.47;;
3379;SDS011;1703;51.964;7.642;2024-03-08T10:40:10;21.67;;;16.93;;
3379;SDS011;1703;51.964;7.642;2024-03-08T10:42:46;26.33;;;16.13;;
3379;SDS011;1703;51.964;7.642;2024-03-08T10:45:19;27.93;;;16.17;;
3379;SDS011;1703;51.964;7.642;2024-03-08T10:47:58;25.33;;;15.97;;
3379;SDS011;1703;51.964;7.642;2024-03-08T10:50:37;26.73;;;15.17;;
3379;SDS011;1703;51.964;7.642;2024-03-08T10:53:04;23.83;;;15.57;;
3379;SDS011;1703;51.964;7.642;2024-03-08T10:55:33;27.43;;;17.73;;
3379;SDS011;1703;51.964;7.642;2024-03-08T10:58:00;25.90;;;16.67;;
3379;SDS011;1703;51.964;7.642;2024-03-08T11:00:26;26.13;;;16.97;;
3379;SDS011;1703;51.964;7.642;2024-03-08T11:02:55;24.83;;;15.03;;
3379;SDS011;1703;51.964;7.642;2024-03-08T11:05:31;27.00;;;15.80;;
3379;SDS011;1703;51.964;7.642;2024-03-08T11:08:05;32.50;;;16.73;;
3379;SDS011;1703;51.964;7.642;2024-03-08T11:10:46;23.47;;;15.63;;
3379;SDS011;1703;51.964;7.642;2024-03-08T11:16:01;26.63;;;15.43;;
3379;SDS011;1703;51.964;7.642;2024-03-08T11:18:32;25.37;;;15.60;;
3379;SDS011;1703;51.964;7.642;2024-03-08T11:21:02;23.87;;;14.83;;
3379;SDS011;1703;51.964;7.642;2024-03-08T11:23:33;25.80;;;15.27;;
3379;SDS011;1703;51.964;7.642;2024-03-08T11:26:00;25.90;;;13.90;;
3379;SDS011;1703;51.964;7.642;2024-03-08T11:28:31;32.03;;;14.97;;
3379;SDS011;1703;51.964;7.642;2024-03-08T11:33:49;26.13;;;16.03;;
3379;SDS011;1703;51.964;7.642;2024-03-08T11:36:20;21.93;;;14.73;;
3379;SDS011;1703;51.964;7.642;2024-03-08T11:38:49;23.80;;;14.07;;
3379;SDS011;1703;51.964;7.642;2024-03-08T11:41:17;20.63;;;14.13;;
3379;SDS011;1703;51.964;7.642;2024-03-08T11:43:45;26.70;;;16.30;;
3379;SDS011;1703;51.964;7.642;2024-03-08T11:46:12;16.87;;;11.73;;
3379;SDS011;1703;51.964;7.642;2024-03-08T11:48:41;17.13;;;13.13;;
3379;SDS011;1703;51.964;7.642;2024-03-08T11:51:09;24.00;;;14.30;;
3379;SDS011;1703;51.964;7.642;2024-03-08T11:53:37;22.77;;;12.87;;
3379;SDS011;1703;51.964;7.642;2024-03-08T11:56:07;22.90;;;14.83;;
3379;SDS011;1703;51.964;7.642;2024-03-08T11:58:34;27.67;;;15.73;;
3379;SDS011;1703;51.964;7.642;2024-03-08T12:01:02;19.40;;;14.20;;
3379;SDS011;1703;51.964;7.642;2024-03-08T12:03:30;21.13;;;13.27;;
3379;SDS011;1703;51.964;7.642;2024-03-08T12:05:59;20.27;;;14.30;;
3379;SDS011;1703;51.964;7.642;2024-03-08T12:08:26;18.93;;;13.60;;
3379;SDS011;1703;51.964;7.642;2024-03-08T12:10:54;21.80;;;14.00;;
3379;SDS011;1703;51.964;7.642;2024-03-08T12:13:26;19.30;;;14.23;;
3379;SDS011;1703;51.964;7.642;2024-03-08T12:15:55;19.97;;;13.40;;
3379;SDS011;1703;51.964;7.642;2024-03-08T12:18:23;17.80;;;12.63;;
3379;SDS011;1703;51.964;7.642;2024-03-08T12:20:51;24.27;;;12.40;;
3379;SDS011;1703;51.964;7.642;2024-03-08T12:23:18;21.27;;;13.37;;
3379;SDS011;1703;51.964;7.642;2024-03-08T12:25:45;18.07;;;12.70;;
3379;SDS011;1703;51.964;7.642;2024-03-08T12:28:12;24.70;;;13.67;;
3379;SDS011;1703;51.964;7.642;2024-03-08T12:30:46;19.07;;;12.70;;
3379;SDS011;1703;51.964;7.642;2024-03-08T12:33:14;26.27;;;15.37;;
3379;SDS011;1703;51.964;7.642;2024-03-08T12:35:49;22.97;;;13.10;;
3379;SDS011;1703;51.964;7.642;2024-03-08T12:38:18;18.77;;;14.23;;
3379;SDS011;1703;51.964;7.642;2024-03-08T12:40:50;21.80;;;14.03;;
3379;SDS011;1703;51.964;7.642;2024-03-08T12:43:18;16.43;;;12.67;;
3379;SDS011;1703;51.964;7.642;2024-03-08T12:45:46;18.33;;;13.40;;
3379;SDS011;1703;51.964;7.642;2024-03-08T12:48:13;21.30;;;13.23;;
3379;SDS011;1703;51.964;7.642;2024-03-08T12:50:40;25.40;;;13.63;;
3379;SDS011;1703;51.964;7.642;2024-03-08T12:53:09;18.83;;;14.00;;
3379;SDS011;1703;51.964;7.642;2024-03-08T12:55:36;20.57;;;13.87;;
3379;SDS011;1703;51.964;7.642;2024-03-08T12:58:03;21.83;;;13.60;;
3379;SDS011;1703;51.964;7.642;2024-03-08T13:00:32;18.60;;;12.70;;
3379;SDS011;1703;51.964;7.642;2024-03-08T13:03:02;18.07;;;12.30;;
3379;SDS011;1703;51.964;7.642;2024-03-08T13:05:31;17.33;;;12.90;;
3379;SDS011;1703;51.964;7.642;2024-03-08T13:07:58;19.83;;;12.17;;
3379;SDS011;1703;51.964;7.642;2024-03-08T13:10:25;20.87;;;15.47;;
3379;SDS011;1703;51.964;7.642;2024-03-08T13:12:52;20.10;;;12.00;;
3379;SDS011;1703;51.964;7.642;2024-03-08T13:15:19;18.43;;;11.73;;
3379;SDS011;1703;51.964;7.642;2024-03-08T13:17:46;19.20;;;13.00;;
3379;SDS011;1703;51.964;7.642;2024-03-08T13:20:15;17.53;;;12.93;;
3379;SDS011;1703;51.964;7.642;2024-03-08T13:22:43;22.43;;;13.10;;
3379;SDS011;1703;51.964;7.642;2024-03-08T13:25:11;23.20;;;14.50;;
3379;SDS011;1703;51.964;7.642;2024-03-08T13:27:38;19.87;;;13.47;;
3379;SDS011;1703;51.964;7.642;2024-03-08T13:30:06;21.07;;;13.40;;
3379;SDS011;1703;51.964;7.642;2024-03-08T13:32:37;27.10;;;13.43;;
3379;SDS011;1703;51.964;7.642;2024-03-08T13:35:05;21.80;;;13.73;;
3379;SDS011;1703;51.964;7.642;2024-03-08T13:37:39;26.43;;;14.07;;
3379;SDS011;1703;51.964;7.642;2024-03-08T13:40:06;23.40;;;15.10;;
3379;SDS011;1703;51.964;7.642;2024-03-08T13:42:36;23.27;;;14.03;;
3379;SDS011;1703;51.964;7.642;2024-03-08T13:45:04;23.83;;;14.73;;
3379;SDS011;1703;51.964;7.642;2024-03-08T13:47:32;21.07;;;13.07;;
3379;SDS011;1703;51.964;7.642;2024-03-08T13:49:59;19.83;;;13.90;;
3379;SDS011;1703;51.964;7.642;2024-03-08T13:52:26;23.63;;;14.23;;
3379;SDS011;1703;51.964;7.642;2024-03-08T13:54:55;18.50;;;14.20;;
3379;SDS011;1703;51.964;7.642;2024-03-08T13:57:22;22.53;;;14.10;;
3379;SDS011;1703;51.964;7.642;2024-03-08T13:59:49;19.60;;;13.10;;
3379;SDS011;1703;51.964;7.642;2024-03-08T14:02:16;21.30;;;13.60;;
3379;SDS011;1703;51.964;7.642;2024-03-08T14:04:43;31.63;;;15.40;;
3379;SDS011;1703;51.964;7.642;2024-03-08T14:07:10;18.90;;;13.40;;
3379;SDS011;1703;51.964;7.642;2024-03-08T14:09:37;24.40;;;14.97;;
3379;SDS011;1703;51.964;7.642;2024-03-08T14:12:09;22.20;;;14.90;;
3379;SDS011;1703;51.964;7.642;2024-03-08T14:14:36;22.63;;;15.73;;
3379;SDS011;1703;51.964;7.642;2024-03-08T14:17:03;18.40;;;13.50;;
3379;SDS011;1703;51.964;7.642;2024-03-08T14:19:32;23.07;;;16.00;;
3379;SDS011;1703;51.964;7.642;2024-03-08T14:22:00;22.03;;;15.30;;
3379;SDS011;1703;51.964;7.642;2024-03-08T14:24:29;20.83;;;14.23;;
3379;SDS011;1703;51.964;7.642;2024-03-08T14:26:56;22.07;;;16.03;;
3379;SDS011;1703;51.964;7.642;2024-03-08T14:29:25;20.93;;;15.40;;
3379;SDS011;1703;51.964;7.642;2024-03-08T14:31:54;20.47;;;13.90;;
3379;SDS011;1703;51.964;7.642;2024-03-08T14:34:22;21.90;;;16.20;;
3379;SDS011;1703;51.964;7.642;2024-03-08T14:36:53;23.93;;;15.90;;
3379;SDS011;1703;51.964;7.642;2024-03-08T14:39:20;20.10;;;15.00;;
3379;SDS011;1703;51.964;7.642;2024-03-08T14:41:51;21.47;;;16.07;;
3379;SDS011;1703;51.964;7.642;2024-03-08T14:44:18;24.30;;;17.07;;
3379;SDS011;1703;51.964;7.642;2024-03-08T14:46:47;24.67;;;15.60;;
3379;SDS011;1703;51.964;7.642;2024-03-08T14:49:14;26.73;;;17.30;;
3379;SDS011;1703;51.964;7.642;2024-03-08T14:51:41;24.93;;;17.47;;
3379;SDS011;1703;51.964;7.642;2024-03-08T14:54:08;21.63;;;14.33;;
3379;SDS011;1703;51.964;7.642;2024-03-08T14:56:36;24.60;;;17.47;;
3379;SDS011;1703;51.964;7.642;2024-03-08T14:59:02;22.20;;;15.13;;
3379;SDS011;1703;51.964;7.642;2024-03-08T15:01:30;23.07;;;16.50;;